Time;durP1;ratioP1;P1;durP2;ratioP2;P2;SDS_P1;SDS_P2;PMS_P1;PMS_P2;Temp;Humidity;BMP_temperature;BMP_pressure;BME280_temperature;BME280_humidity;BME280_pressure;Samples;Min_cycle;Max_cycle;Signal;HPM_P1;HPM_P2
2022/06/03 00:02:22;;;;;;;13.20;8.63;;;;;;;21.03;48.61;102183.28;5077085;28;20044;-46
2022/06/03 00:05:05;;;;;;;12.63;8.02;;;;;;;21.03;48.59;102188.69;5067835;28;20052;-46
2022/06/03 00:07:59;;;;;;;11.85;7.68;;;;;;;21.02;48.46;102181.56;5069385;28;20052;-45
2022/06/03 00:10:40;;;;;;;;;;;;;;;20.99;48.70;102184.56;5068959;28;20044;-48
2022/06/03 00:13:50;;;;;;;14.00;8.00;;;;;;;21.00;49.16;102178.16;5070321;28;20084;-45
2022/06/03 00:16:45;;;;;;;13.98;8.25;;;;;;;20.98;49.02;102182.84;5069238;28;20138;-45
2022/06/03 00:19:26;;;;;;;11.75;7.50;;;;;;;20.97;48.72;102177.59;5067857;28;20489;-47
2022/06/03 00:22:07;;;;;;;14.10;7.90;;;;;;;20.95;49.02;102177.75;5070833;28;20050;-43
2022/06/03 00:24:40;;;;;;;12.02;7.65;;;;;;;20.94;49.73;102178.72;5074443;28;20059;-44
2022/06/03 00:27:31;;;;;;;12.00;7.38;;;;;;;20.92;49.20;102176.16;5079052;28;20050;-44
2022/06/03 00:30:01;;;;;;;10.27;6.75;;;;;;;20.91;49.48;102177.16;5071578;28;20052;-48
2022/06/03 00:33:01;;;;;;;10.80;7.30;;;;;;;20.89;49.56;102179.13;5076231;28;20082;-46
2022/06/03 00:36:00;;;;;;;11.50;7.03;;;;;;;20.87;49.15;102173.06;5071837;28;20066;-45
2022/06/03 00:39:07;;;;;;;13.63;7.60;;;;;;;20.87;49.78;102169.50;5074248;28;20343;-45
2022/06/03 00:41:48;;;;;;;12.18;7.10;;;;;;;20.86;49.76;102170.47;5073676;28;20051;-48
2022/06/03 00:44:34;;;;;;;11.48;7.13;;;;;;;20.84;49.65;102167.94;5073593;28;20052;-43
2022/06/03 00:47:18;;;;;;;12.23;7.25;;;;;;;20.85;49.59;102166.09;5072703;28;20048;-44
2022/06/03 00:50:11;;;;;;;12.77;7.63;;;;;;;20.82;50.00;102174.44;5075508;28;20059;-46
2022/06/03 00:53:04;;;;;;;10.25;6.68;;;;;;;20.81;49.49;102162.81;5072444;28;20426;-45
2022/06/03 00:55:37;;;;;;;12.07;6.90;;;;;;;20.80;49.28;102161.13;5076301;28;20048;-45
2022/06/03 00:58:30;;;;;;;11.50;7.07;;;;;;;20.78;49.33;102163.09;5072421;28;20403;-45
2022/06/03 01:01:25;;;;;;;12.43;7.05;;;;;;;20.77;49.57;102163.25;5073032;28;20052;-45
2022/06/03 01:04:06;;;;;;;11.75;7.38;;;;;;;20.78;49.95;102163.09;5071926;28;20047;-46
2022/06/03 01:06:46;;;;;;;10.95;6.70;;;;;;;20.76;49.60;102158.84;5072140;28;20082;-48
2022/06/03 01:09:24;;;;;;;10.82;7.00;;;;;;;20.75;49.99;102154.47;5073867;28;20380;-45
2022/06/03 01:12:22;;;;;;;10.68;6.85;;;;;;;20.73;49.91;102148.34;5071574;28;20040;-48
2022/06/03 01:15:20;;;;;;;11.30;6.93;;;;;;;20.73;49.47;102151.03;5071896;28;20036;-46
2022/06/03 01:18:05;;;;;;;9.77;6.32;;;;;;;20.72;49.77;102149.34;5072225;28;20048;-46
2022/06/03 01:20:58;;;;;;;10.52;6.38;;;;;;;20.70;49.80;102152.16;5071916;28;20044;-47
2022/06/03 01:23:56;;;;;;;9.88;6.18;;;;;;;20.68;50.11;102152.31;5071206;28;20059;-48
2022/06/03 01:26:47;;;;;;;9.82;6.45;;;;;;;20.68;50.01;102155.00;5078345;28;20403;-49
2022/06/03 01:29:36;;;;;;;9.95;6.13;;;;;;;20.66;49.86;102150.75;5071903;28;20058;-47
2022/06/03 01:32:28;;;;;;;10.25;6.47;;;;;;;20.67;50.32;102156.00;5074801;28;20037;-48
2022/06/03 01:35:13;;;;;;;10.48;6.40;;;;;;;20.64;50.35;102148.19;5071516;28;20079;-45
2022/06/03 01:38:04;;;;;;;10.15;6.30;;;;;;;20.65;50.24;102149.88;5071882;28;20048;-47
2022/06/03 01:40:36;;;;;;;8.35;5.80;;;;;;;20.63;50.06;102143.81;5069495;28;20048;-47
2022/06/03 01:43:17;;;;;;;9.63;6.00;;;;;;;20.62;49.76;102142.09;5072790;28;20062;-46
2022/06/03 01:45:54;;;;;;;9.55;5.63;;;;;;;20.62;49.83;102139.41;5070094;28;20054;-49
2022/06/03 01:48:58;;;;;;;8.70;5.35;;;;;;;20.60;49.86;102137.84;5073754;28;20327;-49
2022/06/03 01:52:09;;;;;;;9.97;6.10;;;;;;;20.60;50.19;102130.59;5071464;28;20049;-49
2022/06/03 01:55:10;;;;;;;7.95;5.30;;;;;;;20.58;50.49;102132.59;5043340;28;20706;-45
2022/06/03 01:58:15;;;;;;;9.65;5.57;;;;;;;20.59;50.58;102133.44;5072731;28;20055;-47
2022/06/03 02:00:54;;;;;;;7.60;5.13;;;;;;;20.58;50.15;102127.22;5066433;28;20054;-45
2022/06/03 02:03:40;;;;;;;9.60;5.65;;;;;;;20.56;50.23;102122.94;5073763;28;20097;-44
2022/06/03 02:06:18;;;;;;;8.25;5.15;;;;;;;20.57;49.71;102125.50;5070439;28;20067;-44
2022/06/03 02:09:03;;;;;;;8.27;5.28;;;;;;;20.55;50.26;102123.94;5075059;28;20043;-45
2022/06/03 02:11:46;;;;;;;9.20;5.47;;;;;;;20.52;50.31;102127.75;5072194;28;20127;-46
2022/06/03 02:14:18;;;;;;;9.30;5.47;;;;;;;20.54;50.19;102119.53;5071165;28;20052;-45
2022/06/03 02:17:16;;;;;;;7.33;5.10;;;;;;;20.52;50.23;102116.13;5072502;28;20052;-45
2022/06/03 02:20:08;;;;;;;10.23;5.25;;;;;;;20.50;50.54;102110.88;5075556;28;20498;-46
2022/06/03 02:22:53;;;;;;;8.05;5.13;;;;;;;20.50;50.29;102118.09;5077046;28;20063;-49
2022/06/03 02:25:44;;;;;;;7.25;4.65;;;;;;;20.49;50.15;102111.88;5068814;28;20355;-46
2022/06/03 02:28:19;;;;;;;7.15;4.53;;;;;;;20.49;50.25;102117.25;5076251;28;20043;-46
2022/06/03 02:31:23;;;;;;;8.75;5.43;;;;;;;20.48;50.10;102114.69;5068244;28;20044;-48
2022/06/03 02:34:13;;;;;;;7.38;4.82;;;;;;;20.46;50.37;102107.59;5073046;28;20059;-47
2022/06/03 02:36:57;;;;;;;7.70;4.53;;;;;;;20.46;50.57;102104.03;5067336;28;20056;-49
2022/06/03 02:39:52;;;;;;;8.52;4.97;;;;;;;20.46;50.69;102109.41;5070792;28;20052;-45
2022/06/03 02:42:21;;;;;;;;;;;;;;;20.44;50.81;102103.31;5076625;28;20055;-46
2022/06/03 02:45:03;;;;;;;6.75;4.43;;;;;;;20.44;50.07;102104.19;5070395;28;19924;-47
2022/06/03 02:48:22;;;;;;;7.22;4.70;;;;;;;20.44;50.61;102100.63;5068129;28;20055;-49
2022/06/03 02:51:09;;;;;;;7.72;4.35;;;;;;;20.43;50.97;102104.31;5067866;28;20319;-48
2022/06/03 02:54:24;;;;;;;6.45;4.05;;;;;;;20.40;50.74;102105.44;5069371;28;20058;-46
2022/06/03 02:57:29;;;;;;;8.73;4.22;;;;;;;20.38;50.72;102099.34;5068792;28;20062;-45
2022/06/03 03:00:22;;;;;;;7.43;4.75;;;;;;;20.40;50.23;102104.59;5046919;28;20335;-46
2022/06/03 03:03:04;;;;;;;6.32;4.15;;;;;;;20.38;50.32;102098.47;5041419;28;20853;-46
2022/06/03 03:05:42;;;;;;;5.43;3.78;;;;;;;20.38;50.26;102093.97;5071083;28;20072;-45
2022/06/03 03:08:27;;;;;;;7.97;4.45;;;;;;;20.37;50.41;102096.78;5071058;28;20046;-46
2022/06/03 03:11:39;;;;;;;5.80;3.80;;;;;;;20.35;50.63;102102.31;5067832;28;20052;-45
2022/06/03 03:14:41;;;;;;;7.13;4.45;;;;;;;20.36;50.32;102097.78;5067788;28;20048;-46
2022/06/03 03:17:25;;;;;;;5.63;3.63;;;;;;;20.35;50.71;102093.41;5068458;28;20560;-46
2022/06/03 03:19:55;;;;;;;7.13;3.80;;;;;;;20.34;51.04;102084.47;5068214;28;20507;-47
2022/06/03 03:22:40;;;;;;;6.93;4.10;;;;;;;20.32;50.65;102083.75;5072839;28;20053;-45
2022/06/03 03:25:13;;;;;;;5.13;3.75;;;;;;;20.33;50.35;102084.59;5064746;28;20056;-46
2022/06/03 03:28:09;;;;;;;5.47;3.60;;;;;;;20.32;50.42;102082.91;5071782;28;20745;-45
2022/06/03 03:30:51;;;;;;;6.78;3.90;;;;;;;20.32;50.49;102081.06;5045503;28;20044;-45
2022/06/03 03:33:36;;;;;;;5.55;3.55;;;;;;;20.32;50.46;102077.50;5076495;28;20052;-45
2022/06/03 03:36:24;;;;;;;4.60;3.30;;;;;;;20.30;50.59;102076.78;5068816;28;20052;-45
2022/06/03 03:39:35;;;;;;;5.53;3.40;;;;;;;20.30;51.28;102079.47;5066582;28;20686;-47
2022/06/03 03:42:13;;;;;;;5.53;3.60;;;;;;;20.31;50.67;102082.06;5064993;28;20048;-46
2022/06/03 03:45:17;;;;;;;5.25;3.40;;;;;;;20.28;50.68;102076.94;5060223;28;20305;-49
2022/06/03 03:48:21;;;;;;;5.82;3.45;;;;;;;20.27;50.56;102071.69;5070640;28;20427;-45
2022/06/03 03:51:00;;;;;;;5.43;2.97;;;;;;;20.28;50.57;102076.94;5067195;28;20053;-44
2022/06/03 03:53:35;;;;;;;4.85;3.38;;;;;;;20.27;50.74;102071.69;5066303;28;20288;-45
2022/06/03 03:56:20;;;;;;;5.68;3.55;;;;;;;20.26;50.86;102068.16;5069249;28;20052;-48
2022/06/03 03:59:20;;;;;;;5.15;3.45;;;;;;;20.25;50.99;102068.28;5079945;28;20335;-45
2022/06/03 04:01:54;;;;;;;6.93;3.67;;;;;;;20.25;51.18;102068.28;5069789;28;20112;-45
2022/06/03 04:04:43;;;;;;;21.65;6.88;;;;;;;20.23;51.36;102070.28;5073087;28;20332;-46
2022/06/03 04:07:28;;;;;;;30.50;7.55;;;;;;;20.22;51.35;102069.41;5070587;28;20082;-49
2022/06/03 04:10:19;;;;;;;23.83;7.25;;;;;;;20.21;50.97;102070.38;5071027;28;20056;-49
2022/06/03 04:13:09;;;;;;;24.02;8.15;;;;;;;20.21;50.96;102073.94;5069022;28;20070;-44
2022/06/03 04:15:56;;;;;;;26.52;6.95;;;;;;;20.20;51.47;102061.47;5072831;28;20056;-47
2022/06/03 04:19:00;;;;;;;20.85;7.05;;;;;;;20.18;50.92;102066.16;5067921;28;20080;-46
2022/06/03 04:21:45;;;;;;;17.75;6.75;;;;;;;20.19;51.41;102053.53;5068743;28;20408;-45
2022/06/03 04:24:40;;;;;;;17.80;6.05;;;;;;;20.17;50.89;102048.28;5069434;28;20052;-47
2022/06/03 04:27:26;;;;;;;18.15;6.55;;;;;;;20.17;51.63;102047.44;5078612;28;20135;-45
2022/06/03 04:30:01;;;;;;;17.20;6.63;;;;;;;20.14;50.88;102037.81;5074448;28;20040;-45
2022/06/03 04:33:10;;;;;;;21.63;5.85;;;;;;;20.13;50.92;102037.94;5075452;28;20052;-45
2022/06/03 04:35:52;;;;;;;21.15;5.53;;;;;;;20.13;51.36;102024.47;5073041;28;20473;-50
2022/06/03 04:38:59;;;;;;;14.05;6.10;;;;;;;20.13;51.11;102029.84;5072217;28;20044;-45
2022/06/03 04:41:31;;;;;;;13.68;6.35;;;;;;;20.13;50.65;102033.41;5074179;28;20032;-48
2022/06/03 04:44:26;;;;;;;14.30;5.45;;;;;;;20.11;51.61;102032.69;5070947;28;20059;-48
2022/06/03 04:47:04;;;;;;;13.48;5.45;;;;;;;20.11;50.94;102035.38;5073900;28;20051;-45
2022/06/03 04:49:37;;;;;;;14.30;6.05;;;;;;;20.11;51.36;102031.84;5073191;28;20056;-44
2022/06/03 04:52:41;;;;;;;13.50;6.57;;;;;;;20.11;51.10;102034.53;5072531;28;20046;-47
2022/06/03 04:55:29;;;;;;;12.27;5.15;;;;;;;20.11;50.90;102040.78;5070575;28;20052;-44
2022/06/03 04:58:20;;;;;;;11.23;4.88;;;;;;;20.13;50.68;102048.69;5069892;28;20045;-44
2022/06/03 05:01:24;;;;;;;10.45;4.88;;;;;;;20.16;50.95;102046.59;5072263;28;20441;-45
2022/06/03 05:04:12;;;;;;;12.52;4.97;;;;;;;20.19;50.70;102046.31;5065758;28;20044;-46
2022/06/03 05:07:17;;;;;;;13.38;5.18;;;;;;;20.24;50.69;102048.59;5071837;28;20062;-44
2022/06/03 05:09:53;;;;;;;13.07;5.05;;;;;;;20.28;51.00;102044.63;5074822;28;20045;-47
2022/06/03 05:12:57;;;;;;;8.80;4.72;;;;;;;20.32;50.44;102040.66;5070942;28;20558;-45
2022/06/03 05:15:46;;;;;;;12.50;4.95;;;;;;;20.36;50.65;102043.94;5073653;28;20055;-49
2022/06/03 05:18:40;;;;;;;11.00;5.65;;;;;;;20.37;50.56;102042.94;5069941;28;20048;-46
2022/06/03 05:21:32;;;;;;;10.90;5.07;;;;;;;20.37;50.61;102049.16;5073913;28;20028;-45
2022/06/03 05:24:26;;;;;;;11.70;4.85;;;;;;;20.35;49.94;102050.31;5080704;28;20040;-45
2022/06/03 05:27:11;;;;;;;11.75;5.10;;;;;;;20.35;50.52;102045.78;5085986;28;20040;-47
2022/06/03 05:30:16;;;;;;;9.18;4.45;;;;;;;20.32;49.95;102040.66;5065833;28;20059;-45
2022/06/03 05:32:54;;;;;;;;;;;;;;;20.33;50.38;102054.97;5081535;28;20343;-46
2022/06/03 05:35:52;;;;;;;7.22;4.25;;;;;;;20.33;50.43;102049.59;5080988;28;19934;-46
2022/06/03 05:38:56;;;;;;;9.32;4.88;;;;;;;20.30;50.28;102039.97;5079827;28;20139;-45
2022/06/03 05:44:36;;;;;;;6.13;3.95;;;;;;;20.29;50.81;102040.94;5076521;28;20131;-44
2022/06/03 05:47:24;;;;;;;14.18;4.93;;;;;;;20.31;50.45;102038.97;5077924;28;20068;-45
2022/06/03 05:50:01;;;;;;;8.75;4.05;;;;;;;20.31;50.07;102040.81;5076619;28;20044;-47
2022/06/03 05:53:07;;;;;;;7.50;4.07;;;;;;;20.29;50.04;102034.69;5068442;28;21641;-45
2022/06/03 05:55:53;;;;;;;7.68;4.30;;;;;;;20.30;50.16;102042.66;5072924;28;20044;-46
2022/06/03 05:58:59;;;;;;;6.43;3.90;;;;;;;20.30;50.48;102042.66;5079157;28;20042;-44
2022/06/03 06:01:44;;;;;;;7.15;4.28;;;;;;;20.31;50.29;102038.13;5070401;28;21943;-46
2022/06/03 06:04:38;;;;;;;7.88;4.45;;;;;;;20.30;49.81;102044.47;5069843;28;20044;-47
2022/06/03 06:07:41;;;;;;;6.60;3.67;;;;;;;20.32;49.76;102042.50;5070645;28;20040;-46
2022/06/03 06:10:18;;;;;;;6.15;3.83;;;;;;;20.33;50.08;102049.59;5074097;28;20047;-48
2022/06/03 06:13:06;;;;;;;6.93;3.97;;;;;;;20.32;49.82;102047.91;5068311;28;20370;-47
2022/06/03 06:16:07;;;;;;;8.90;4.68;;;;;;;20.32;50.50;102039.81;5077360;28;20612;-49
2022/06/03 06:18:42;;;;;;;7.13;4.07;;;;;;;20.34;49.76;102053.97;5069363;28;20587;-44
2022/06/03 06:21:31;;;;;;;5.38;3.67;;;;;;;20.33;50.01;102046.91;5067492;28;20063;-47
2022/06/03 06:24:16;;;;;;;8.95;3.38;;;;;;;20.34;49.98;102045.91;5070277;28;20045;-45
2022/06/03 06:27:31;;;;;;;6.28;3.97;;;;;;;20.34;50.31;102048.59;5067179;28;20432;-45
2022/06/03 06:30:05;;;;;;;7.32;3.90;;;;;;;20.35;49.95;102053.84;5069756;28;20050;-45
2022/06/03 06:33:09;;;;;;;6.22;3.83;;;;;;;20.35;49.56;102051.16;5066262;28;20060;-45
2022/06/03 06:36:00;;;;;;;7.97;3.35;;;;;;;20.36;49.75;102054.69;5067657;28;20060;-48
2022/06/03 06:38:44;;;;;;;7.45;3.58;;;;;;;20.37;49.93;102059.09;5068474;28;20053;-49
2022/06/03 06:41:37;;;;;;;6.00;3.70;;;;;;;20.37;49.56;102053.69;5068943;28;20054;-46
2022/06/03 06:44:58;;;;;;;5.57;3.60;;;;;;;20.37;50.10;102056.41;5073858;28;20069;-45
2022/06/03 06:47:52;;;;;;;6.45;3.42;;;;;;;20.38;50.22;102053.59;5027634;28;20049;-45
2022/06/03 06:50:21;;;;;;;;;;;;;;;20.39;49.94;102057.97;5065473;28;20699;-46
2022/06/03 06:53:26;;;;;;;5.97;3.13;;;;;;;20.40;49.68;102059.66;5068952;28;19920;-46
2022/06/03 06:56:03;;;;;;;6.97;3.78;;;;;;;20.42;49.49;102051.44;5036224;28;20048;-45
2022/06/03 06:58:42;;;;;;;8.07;4.13;;;;;;;20.44;49.87;102049.47;5068865;28;20067;-48
2022/06/03 07:01:17;;;;;;;6.53;4.10;;;;;;;20.42;49.91;102046.94;5078781;28;20059;-46
2022/06/03 07:03:56;;;;;;;10.18;4.70;;;;;;;20.43;50.03;102043.22;5078426;28;20055;-45
2022/06/03 07:06:41;;;;;;;7.85;3.95;;;;;;;20.44;49.50;102041.38;5076101;28;20044;-48
2022/06/03 07:09:27;;;;;;;6.93;4.30;;;;;;;20.44;49.94;102046.78;5078283;28;20283;-45
2022/06/03 07:12:12;;;;;;;8.65;4.13;;;;;;;20.45;50.03;102041.22;5073478;28;20046;-47
2022/06/03 07:14:52;;;;;;;7.13;4.32;;;;;;;20.47;49.39;102038.41;5077804;28;20139;-46
2022/06/03 07:20:30;;;;;;;9.75;4.13;;;;;;;20.49;49.32;102028.38;5078321;28;20048;-48
2022/06/03 07:23:07;;;;;;;10.32;5.20;;;;;;;20.49;49.50;102027.53;5074442;28;20119;-49
2022/06/03 07:25:36;;;;;;;10.38;5.13;;;;;;;20.51;49.92;102034.47;5076412;28;20395;-46
2022/06/03 07:28:37;;;;;;;10.52;5.45;;;;;;;20.51;49.83;102030.94;5075221;28;20132;-45
2022/06/03 07:31:16;;;;;;;10.10;5.15;;;;;;;20.52;49.64;102030.78;5075137;28;20087;-46
2022/06/03 07:33:55;;;;;;;9.50;5.15;;;;;;;20.54;49.10;102041.41;5076190;28;20087;-48
2022/06/03 07:36:34;;;;;;;11.50;4.85;;;;;;;20.55;49.47;102038.59;5077262;28;20048;-46
2022/06/03 07:39:19;;;;;;;11.07;5.70;;;;;;;20.55;49.58;102035.91;5077556;28;20059;-45
2022/06/03 07:41:57;;;;;;;10.40;4.95;;;;;;;20.57;49.76;102033.91;5077763;28;20058;-47
2022/06/03 07:44:34;;;;;;;13.30;5.30;;;;;;;20.57;49.84;102033.91;5078830;28;20127;-48
2022/06/03 07:47:03;;;;;;;11.77;5.18;;;;;;;20.58;49.63;102027.56;5072646;28;20115;-46
2022/06/03 07:49:34;;;;;;;11.07;5.20;;;;;;;20.60;49.12;102030.94;5073295;28;20099;-47
2022/06/03 07:52:07;;;;;;;11.18;5.90;;;;;;;20.60;49.65;102032.78;5075430;28;20045;-45
2022/06/03 07:54:35;;;;;;;13.43;5.10;;;;;;;20.61;48.94;102031.78;5074094;28;20044;-46
2022/06/03 07:57:07;;;;;;;9.23;5.00;;;;;;;20.62;49.14;102022.69;5076436;28;20159;-45
2022/06/03 07:59:37;;;;;;;10.00;5.30;;;;;;;20.63;49.35;102032.50;5076659;28;20040;-45
2022/06/03 08:02:14;;;;;;;12.70;6.30;;;;;;;20.64;49.40;102034.19;5079060;28;20124;-46
2022/06/03 08:04:42;;;;;;;10.70;5.30;;;;;;;20.65;49.17;102022.44;5072094;28;20391;-45
2022/06/03 08:13:04;;;;;;;16.02;6.95;;;;;;;20.69;49.37;102018.44;5073377;28;20219;-46
2022/06/03 08:15:35;;;;;;;10.68;5.90;;;;;;;20.68;49.41;102014.91;5075602;28;20336;-46
2022/06/03 08:18:05;;;;;;;12.73;6.50;;;;;;;20.69;49.58;102013.91;5075442;28;20124;-45
2022/06/03 08:20:45;;;;;;;12.45;5.80;;;;;;;20.70;49.18;102012.94;5075141;28;20136;-46
2022/06/03 08:23:11;;;;;;;15.35;6.47;;;;;;;20.72;49.63;102018.19;5073173;28;20391;-50
2022/06/03 08:25:43;;;;;;;12.85;6.45;;;;;;;20.73;49.32;102002.84;5073277;28;20462;-46
2022/06/03 08:28:15;;;;;;;10.90;6.38;;;;;;;20.74;49.52;102009.94;5073311;28;20041;-46
2022/06/03 08:30:46;;;;;;;15.43;6.50;;;;;;;20.75;49.18;102008.97;5075286;28;20059;-46
2022/06/03 08:33:15;;;;;;;14.77;6.00;;;;;;;20.75;49.34;102004.41;5073830;28;20058;-47
2022/06/03 08:35:46;;;;;;;12.70;6.35;;;;;;;20.76;49.40;102007.97;5073479;28;20059;-49
2022/06/03 08:38:18;;;;;;;11.02;6.38;;;;;;;20.77;49.45;101996.19;5076310;28;20040;-50
2022/06/03 08:41:25;;;;;;;10.30;5.75;;;;;;;20.76;49.25;101995.34;5078100;28;21929;-48
2022/06/03 08:44:23;;;;;;;14.52;6.68;;;;;;;20.78;49.45;101993.34;5077538;28;20040;-47
2022/06/03 08:46:57;;;;;;;13.40;6.53;;;;;;;20.80;49.47;102002.13;5079458;28;20036;-46
2022/06/03 08:49:29;;;;;;;14.27;5.95;;;;;;;20.81;49.70;101995.75;5075427;28;20040;-46
2022/06/03 08:52:06;;;;;;;11.18;5.85;;;;;;;20.82;49.73;101997.44;5078227;28;20044;-48
2022/06/03 08:54:44;;;;;;;12.45;6.55;;;;;;;20.82;49.83;101989.34;5078591;28;20155;-47
2022/06/03 08:57:44;;;;;;;13.07;6.93;;;;;;;20.84;49.86;101983.84;5079332;28;20599;-45
2022/06/03 09:00:19;;;;;;;14.68;6.03;;;;;;;20.85;49.54;101970.22;5076410;28;20056;-45
2022/06/03 09:02:54;;;;;;;10.13;6.00;;;;;;;20.87;49.04;101975.47;5078103;28;20140;-47
2022/06/03 09:05:31;;;;;;;11.40;5.80;;;;;;;20.87;49.21;101976.31;5080297;28;20043;-45
2022/06/03 09:08:22;;;;;;;8.95;5.10;;;;;;;20.89;49.25;101979.72;5076233;28;20101;-48
2022/06/03 09:11:01;;;;;;;11.07;5.25;;;;;;;20.92;49.45;101981.28;5074935;28;20560;-47
2022/06/03 09:13:39;;;;;;;10.55;5.68;;;;;;;20.94;49.15;101965.78;5075735;28;20045;-46
2022/06/03 09:16:10;;;;;;;9.75;6.13;;;;;;;20.95;49.07;101978.28;5076827;28;20087;-45
2022/06/03 09:18:45;;;;;;;12.73;5.88;;;;;;;20.97;49.80;101980.84;5078298;28;20373;-45
2022/06/03 09:21:22;;;;;;;13.45;5.90;;;;;;;20.99;49.45;101968.94;5074672;28;20369;-46
2022/06/03 09:23:55;;;;;;;9.25;5.20;;;;;;;21.01;49.31;101960.69;5075993;28;20045;-47
2022/06/03 09:26:29;;;;;;;10.63;5.22;;;;;;;21.03;49.10;101972.19;5074417;28;21491;-44
2022/06/03 09:29:01;;;;;;;10.07;5.32;;;;;;;21.05;49.69;101973.72;5076103;28;20171;-44
2022/06/03 09:31:29;;;;;;;10.32;4.75;;;;;;;21.07;49.11;101976.28;5075103;28;20475;-45
2022/06/03 09:33:57;;;;;;;10.18;5.30;;;;;;;21.09;49.65;101967.03;5073996;28;20063;-44
2022/06/03 09:36:24;;;;;;;8.32;4.68;;;;;;;21.11;49.14;101970.44;5074729;28;20416;-45
2022/06/03 09:39:00;;;;;;;10.63;5.18;;;;;;;21.14;49.38;101967.44;5074702;28;20048;-45
2022/06/03 09:41:34;;;;;;;9.15;4.70;;;;;;;21.16;49.00;101965.47;5072601;28;20294;-45
2022/06/03 09:44:03;;;;;;;17.83;5.10;;;;;;;21.22;49.54;101977.50;5075368;28;20043;-49
2022/06/03 09:46:32;;;;;;;10.43;5.55;;;;;;;21.23;49.18;101972.94;5075745;28;20056;-46
2022/06/03 09:49:01;;;;;;;9.80;4.68;;;;;;;21.26;49.36;101972.66;5074761;28;20060;-45
2022/06/03 09:54:29;;;;;;;11.00;5.70;;;;;;;21.30;49.52;101966.81;5074451;28;20044;-46
2022/06/03 09:57:21;;;;;;;12.13;6.03;;;;;;;21.32;49.52;101967.56;5080733;28;20133;-45
2022/06/03 09:59:55;;;;;;;12.35;6.22;;;;;;;21.35;49.42;101969.13;5074371;28;20415;-48
2022/06/03 10:02:22;;;;;;;12.00;5.60;;;;;;;21.37;49.27;101969.81;5077702;28;20036;-45
2022/06/03 10:04:48;;;;;;;15.60;6.13;;;;;;;21.38;49.32;101971.50;5076477;28;21872;-45
2022/06/03 10:07:15;;;;;;;12.52;6.68;;;;;;;21.40;49.32;101967.66;5074148;28;20060;-45
2022/06/03 10:12:56;;;;;;;11.93;6.82;;;;;;;21.44;49.67;101966.38;5074289;28;20284;-49
2022/06/03 10:15:42;;;;;;;13.15;6.35;;;;;;;21.46;49.57;101977.00;5074119;28;20400;-48
2022/06/03 10:18:22;;;;;;;12.85;6.05;;;;;;;21.48;49.42;101964.22;5075220;28;20039;-46
2022/06/03 10:20:51;;;;;;;12.65;5.43;;;;;;;21.51;49.46;101966.63;5076947;28;20052;-45
2022/06/03 10:23:26;;;;;;;10.48;6.07;;;;;;;21.52;49.54;101954.00;5077158;28;20102;-47
2022/06/03 10:26:23;;;;;;;13.60;5.65;;;;;;;21.54;49.38;101974.41;5074494;28;20068;-47
2022/06/03 10:28:52;;;;;;;10.20;4.82;;;;;;;21.56;49.71;101968.88;5078627;28;20101;-45
2022/06/03 10:31:26;;;;;;;10.63;5.30;;;;;;;21.57;49.59;101967.88;5074667;28;20045;-45
2022/06/03 10:34:17;;;;;;;8.40;4.45;;;;;;;21.59;49.58;101960.50;5074707;28;20045;-46
2022/06/03 10:36:46;;;;;;;7.47;4.55;;;;;;;21.61;49.02;101948.53;5077683;28;20145;-48
2022/06/03 10:39:15;;;;;;;8.63;5.18;;;;;;;21.61;49.35;101943.13;5076333;28;20130;-46
2022/06/03 10:41:45;;;;;;;11.27;4.97;;;;;;;21.63;49.26;101943.00;5078029;28;20064;-45
2022/06/03 10:44:14;;;;;;;6.13;3.97;;;;;;;21.64;49.56;101931.22;5079681;28;20048;-45
2022/06/03 10:46:55;;;;;;;10.05;4.53;;;;;;;21.65;49.09;101939.13;5077040;28;20094;-46
2022/06/03 10:49:24;;;;;;;6.43;4.07;;;;;;;21.68;49.23;101932.59;5076142;28;20377;-46
2022/06/03 11:02:57;;;;;;;13.85;4.90;;;;;;;21.77;49.18;101917.34;5077307;28;20131;-45
2022/06/03 11:05:27;;;;;;;16.73;5.85;;;;;;;21.78;49.12;101916.34;5074719;28;20051;-46
2022/06/03 11:08:03;;;;;;;17.60;5.38;;;;;;;21.79;48.93;101913.50;5073124;28;20043;-46
2022/06/03 11:10:51;;;;;;;13.75;5.57;;;;;;;21.80;48.86;101909.81;5075238;28;20500;-46
2022/06/03 11:13:39;;;;;;;17.23;6.10;;;;;;;21.82;49.21;101917.72;5076494;28;20068;-45
2022/06/03 11:16:35;;;;;;;15.57;5.85;;;;;;;21.83;49.14;101914.91;5077343;28;20053;-45
2022/06/03 11:19:17;;;;;;;18.05;6.03;;;;;;;21.85;48.93;101906.63;5064182;28;20320;-46
2022/06/03 11:21:44;;;;;;;14.68;5.95;;;;;;;21.89;49.09;101902.63;5080057;28;20044;-46
2022/06/03 11:24:10;;;;;;;17.90;5.15;;;;;;;21.90;48.93;101882.72;5080611;28;20044;-48
2022/06/03 11:26:43;;;;;;;14.45;5.43;;;;;;;21.91;48.85;101900.63;5076614;28;20048;-46
2022/06/03 11:29:17;;;;;;;17.13;5.97;;;;;;;21.93;48.79;101893.22;5080441;28;20056;-47
2022/06/03 11:31:49;;;;;;;15.65;5.15;;;;;;;21.94;49.06;101889.50;5074070;28;20083;-45
2022/06/03 11:34:20;;;;;;;11.25;5.63;;;;;;;21.96;49.05;101890.22;5077307;28;20044;-45
2022/06/03 11:36:49;;;;;;;17.15;5.13;;;;;;;21.97;48.85;101891.06;5077791;28;20036;-46
2022/06/03 11:39:37;;;;;;;16.33;5.35;;;;;;;21.98;48.74;101888.19;5080606;28;20045;-46
2022/06/03 11:42:28;;;;;;;15.82;5.70;;;;;;;22.00;48.70;101894.31;5077452;28;20052;-46
2022/06/03 11:45:09;;;;;;;12.15;4.97;;;;;;;22.02;48.43;101888.75;5077478;28;20040;-45
2022/06/03 11:47:59;;;;;;;11.65;4.90;;;;;;;22.02;48.40;101888.75;5081310;28;20596;-48
2022/06/03 11:50:28;;;;;;;12.15;5.28;;;;;;;22.04;48.67;101886.75;5081752;28;20071;-46
2022/06/03 11:52:56;;;;;;;8.85;4.55;;;;;;;22.05;48.32;101886.59;5074963;28;20420;-49
2022/06/03 11:55:29;;;;;;;13.10;5.20;;;;;;;22.05;48.25;101881.19;5076492;28;20074;-44
2022/06/03 11:58:35;;;;;;;10.30;4.15;;;;;;;22.07;48.34;101883.72;5078943;28;20048;-49
2022/06/03 12:01:13;;;;;;;11.57;4.88;;;;;;;22.09;48.12;101885.28;5080939;28;20048;-47
2022/06/03 12:03:54;;;;;;;9.80;4.95;;;;;;;22.10;48.24;101888.81;5077026;28;20040;-46
2022/06/03 12:06:33;;;;;;;14.15;4.50;;;;;;;22.12;47.97;101897.63;5082990;28;20139;-45
2022/06/03 12:09:23;;;;;;;15.38;5.05;;;;;;;22.12;47.92;101889.53;5081412;28;20040;-45
2022/06/03 12:14:46;;;;;;;8.20;3.80;;;;;;;22.14;48.04;101891.06;5079231;28;20040;-49
2022/06/03 12:17:12;;;;;;;10.90;4.63;;;;;;;22.15;47.87;101900.03;5077202;28;20105;-49
2022/06/03 12:19:49;;;;;;;10.02;3.58;;;;;;;22.16;47.63;101896.34;5084329;28;20047;-46
2022/06/03 12:22:21;;;;;;;5.50;2.95;;;;;;;22.16;47.84;101894.50;5088675;28;20159;-45
2022/06/03 12:25:33;;;;;;;6.65;3.40;;;;;;;22.17;47.75;101898.03;5085497;28;20315;-48
2022/06/03 12:28:04;;;;;;;12.57;4.00;;;;;;;22.18;47.80;101889.75;5083088;28;20046;-48
2022/06/03 12:30:41;;;;;;;6.57;3.00;;;;;;;22.18;47.64;101881.66;5083832;28;20120;-49
2022/06/03 12:33:37;;;;;;;8.82;3.20;;;;;;;22.21;47.62;101885.91;5079035;28;20087;-48
2022/06/03 12:36:08;;;;;;;7.30;3.15;;;;;;;22.22;47.76;101884.91;5077275;28;20127;-47
2022/06/03 12:38:53;;;;;;;7.22;3.13;;;;;;;22.22;47.66;101886.75;5078889;28;20114;-46
2022/06/03 12:41:45;;;;;;;6.22;3.08;;;;;;;22.22;47.47;101887.59;5076733;28;20040;-47
2022/06/03 12:44:39;;;;;;;6.95;2.97;;;;;;;22.23;47.75;101894.72;5083157;28;20058;-49
2022/06/03 12:47:18;;;;;;;5.85;3.10;;;;;;;22.24;47.66;101893.72;5064091;28;20062;-47
2022/06/03 12:49:44;;;;;;;5.97;2.78;;;;;;;22.26;47.43;101898.94;5081737;28;20110;-45
2022/06/03 12:52:31;;;;;;;8.30;3.95;;;;;;;22.25;47.69;101886.44;5083411;28;20580;-48
2022/06/03 12:55:13;;;;;;;8.65;4.15;;;;;;;22.26;47.64;101893.53;5083890;28;20047;-48
2022/06/03 12:57:51;;;;;;;6.72;3.10;;;;;;;22.27;47.43;101895.22;5080230;28;20151;-49
2022/06/03 13:00:17;;;;;;;4.93;2.55;;;;;;;22.29;47.37;101890.53;5081125;28;20053;-47
2022/06/03 13:03:00;;;;;;;6.30;2.97;;;;;;;22.29;47.35;101885.97;5079004;28;20287;-48
2022/06/03 13:05:38;;;;;;;5.40;2.85;;;;;;;22.29;47.49;101895.94;5081273;28;20122;-45
2022/06/03 13:08:08;;;;;;;5.68;2.70;;;;;;;22.31;47.45;101891.22;5078771;28;20127;-45
2022/06/03 13:11:14;;;;;;;6.32;2.80;;;;;;;22.31;47.30;101891.22;5078673;28;20127;-46